createdAt,value
2023-02-23T00:01:53.355Z,75.17
2023-02-23T00:04:20.204Z,78.83
2023-02-23T00:18:09.865Z,73.00
2023-02-23T00:20:36.807Z,76.23
2023-02-23T00:23:04.542Z,75.30
2023-02-23T00:25:31.231Z,76.30
2023-02-23T00:27:58.300Z,76.77
2023-02-23T00:30:25.203Z,81.50
2023-02-23T00:32:52.782Z,70.20
2023-02-23T00:35:19.500Z,76.73
2023-02-23T00:37:49.857Z,78.77
2023-02-23T00:40:20.050Z,75.13
2023-02-23T00:42:49.318Z,77.70
2023-02-23T00:45:16.246Z,82.07
2023-02-23T00:47:44.397Z,82.37
2023-02-23T00:50:17.054Z,81.03
2023-02-23T00:52:44.434Z,75.77
2023-02-23T00:55:13.360Z,83.67
2023-02-23T00:57:40.264Z,81.53
2023-02-23T01:00:18.766Z,80.37
2023-02-23T01:02:45.771Z,76.83
2023-02-23T01:05:13.576Z,84.83
2023-02-23T01:07:40.814Z,80.33
2023-02-23T01:10:19.180Z,98.23
2023-02-23T01:12:48.173Z,77.07
2023-02-23T01:15:15.288Z,89.23
2023-02-23T01:17:42.967Z,86.80
2023-02-23T01:20:17.733Z,87.27
2023-02-23T01:22:46.783Z,86.20
2023-02-23T01:25:14.031Z,86.47
2023-02-23T01:27:41.738Z,86.87
2023-02-23T01:30:11.622Z,94.00
2023-02-23T01:32:39.145Z,81.90
2023-02-23T01:35:10.468Z,91.03
2023-02-23T01:37:40.606Z,79.73
2023-02-23T01:40:14.782Z,88.20
2023-02-23T01:42:44.174Z,84.40
2023-02-23T01:45:31.150Z,83.97
2023-02-23T01:48:04.505Z,76.83
2023-02-23T01:50:38.753Z,85.23
2023-02-23T01:53:06.030Z,72.97
2023-02-23T01:55:32.783Z,80.63
2023-02-23T01:58:06.674Z,76.77
2023-02-23T02:00:36.998Z,88.10
2023-02-23T02:03:12.077Z,71.37
2023-02-23T02:05:40.830Z,78.90
2023-02-23T02:08:10.267Z,76.90
2023-02-23T02:10:44.929Z,76.63
2023-02-23T02:13:18.179Z,72.37
2023-02-23T02:15:53.967Z,83.60
2023-02-23T02:18:38.127Z,80.47
2023-02-23T02:21:42.594Z,78.93
2023-02-23T02:24:54.448Z,83.33
2023-02-23T02:27:57.980Z,78.60
2023-02-23T02:30:27.507Z,84.00
2023-02-23T02:33:34.562Z,94.13
2023-02-23T02:36:20.376Z,79.53
2023-02-23T02:39:22.759Z,87.37
2023-02-23T02:42:07.084Z,97.73
2023-02-23T02:44:42.917Z,93.67
2023-02-23T02:47:17.114Z,96.47
2023-02-23T02:50:08.600Z,87.30
2023-02-23T02:52:47.284Z,94.37
2023-02-23T02:55:18.742Z,85.37
2023-02-23T02:57:46.880Z,100.20
2023-02-23T03:00:38.155Z,97.43
2023-02-23T03:03:23.584Z,92.57
2023-02-23T03:06:13.176Z,92.40
2023-02-23T03:09:01.875Z,95.53
2023-02-23T03:12:04.405Z,99.87
2023-02-23T03:15:16.150Z,90.17
2023-02-23T03:18:18.924Z,93.57
2023-02-23T03:21:12.889Z,94.43
2023-02-23T03:24:27.437Z,97.63
2023-02-23T03:27:22.956Z,96.80
2023-02-23T03:30:19.150Z,93.30
2023-02-23T03:33:14.583Z,96.80
2023-02-23T03:36:07.785Z,92.23
2023-02-23T03:39:05.255Z,95.33
2023-02-23T03:41:52.482Z,101.03
2023-02-23T03:44:44.427Z,89.63
2023-02-23T03:47:31.497Z,96.20
2023-02-23T03:50:19.781Z,94.20
2023-02-23T03:53:11.017Z,94.80
2023-02-23T03:56:01.590Z,96.47
2023-02-23T03:58:49.165Z,112.00
2023-02-23T04:01:37.437Z,97.57
2023-02-23T04:04:27.475Z,93.07
2023-02-23T04:07:17.717Z,112.37
2023-02-23T04:10:04.859Z,99.73
2023-02-23T04:13:13.715Z,108.63
2023-02-23T04:16:00.512Z,117.23
2023-02-23T04:18:34.015Z,113.80
2023-02-23T04:21:03.141Z,121.53
2023-02-23T04:23:31.134Z,118.37
2023-02-23T04:25:58.741Z,123.60
2023-02-23T04:28:28.344Z,119.87
2023-02-23T04:30:56.126Z,106.73
2023-02-23T04:33:25.672Z,126.53
2023-02-23T04:35:54.186Z,114.83
2023-02-23T04:38:22.189Z,122.47
2023-02-23T04:40:49.180Z,119.27
2023-02-23T04:43:16.549Z,115.97
2023-02-23T04:45:45.444Z,125.30
2023-02-23T04:48:12.635Z,116.70
2023-02-23T04:50:39.732Z,117.20
2023-02-23T04:53:06.792Z,114.00
2023-02-23T04:55:34.431Z,138.87
2023-02-23T04:58:02.257Z,128.43
2023-02-23T05:00:30.113Z,117.10
2023-02-23T05:02:57.781Z,122.70
2023-02-23T05:05:24.981Z,122.87
2023-02-23T05:07:53.013Z,126.60
2023-02-23T05:10:19.938Z,134.03
2023-02-23T05:12:47.148Z,121.97
2023-02-23T05:15:14.445Z,124.03
2023-02-23T05:17:42.270Z,128.63
2023-02-23T05:20:12.938Z,117.90
2023-02-23T05:22:42.469Z,120.73
2023-02-23T05:25:11.836Z,126.73
2023-02-23T05:27:40.546Z,116.17
2023-02-23T05:30:10.548Z,113.87
2023-02-23T05:32:38.020Z,122.03
2023-02-23T05:35:05.725Z,122.63
2023-02-23T05:37:33.827Z,130.40
2023-02-23T05:40:00.794Z,134.50
2023-02-23T05:42:27.738Z,123.60
2023-02-23T05:44:55.288Z,124.20
2023-02-23T05:47:22.139Z,113.60
2023-02-23T05:49:49.295Z,121.20
2023-02-23T05:52:16.168Z,122.23
2023-02-23T05:54:43.775Z,120.33
2023-02-23T05:57:10.659Z,120.77
2023-02-23T05:59:37.542Z,113.50
2023-02-23T06:02:07.088Z,121.13
2023-02-23T06:04:34.466Z,105.47
2023-02-23T06:07:01.506Z,119.23
2023-02-23T06:09:28.514Z,120.50
2023-02-23T06:11:55.733Z,138.63
2023-02-23T06:14:22.649Z,124.47
2023-02-23T06:16:49.578Z,112.40
2023-02-23T06:19:16.880Z,124.87
2023-02-23T06:21:44.688Z,119.60
2023-02-23T06:24:12.359Z,131.57
2023-02-23T06:26:39.459Z,112.23
2023-02-23T06:29:06.385Z,118.17
2023-02-23T06:31:33.243Z,117.83
2023-02-23T06:34:00.204Z,123.27
2023-02-23T06:36:27.304Z,125.47
2023-02-23T06:38:58.184Z,110.37
2023-02-23T06:41:26.016Z,121.37
2023-02-23T06:43:53.069Z,121.63
2023-02-23T06:46:20.030Z,121.40
2023-02-23T06:48:47.192Z,128.93
2023-02-23T06:51:14.799Z,122.53
2023-02-23T06:53:41.664Z,120.27
2023-02-23T06:56:08.616Z,115.77
2023-02-23T06:58:35.705Z,113.20
2023-02-23T07:01:02.787Z,120.23
2023-02-23T07:03:29.750Z,135.50
2023-02-23T07:05:56.911Z,124.03
2023-02-23T07:08:23.869Z,124.70
2023-02-23T07:10:50.806Z,115.07
2023-02-23T07:13:17.888Z,113.50
2023-02-23T07:15:45.525Z,124.23
2023-02-23T07:18:12.468Z,119.60
2023-02-23T07:20:39.331Z,110.73
2023-02-23T07:23:06.223Z,115.47
2023-02-23T07:25:33.286Z,111.33
2023-02-23T07:28:00.333Z,110.47
2023-02-23T07:30:28.130Z,111.70
2023-02-23T07:32:55.075Z,108.87
2023-02-23T07:35:22.093Z,101.40
2023-02-23T07:37:48.998Z,108.53
2023-02-23T07:40:16.180Z,104.77
2023-02-23T07:42:43.474Z,105.53
2023-02-23T07:45:11.436Z,116.70
2023-02-23T07:47:39.457Z,106.17
2023-02-23T07:50:14.127Z,96.00
2023-02-23T07:52:42.709Z,99.33
2023-02-23T07:55:10.851Z,97.70
2023-02-23T07:57:38.698Z,97.57
2023-02-23T08:00:06.856Z,101.50
2023-02-23T08:02:35.012Z,103.17
2023-02-23T08:05:03.141Z,98.07
2023-02-23T08:07:33.749Z,108.97
2023-02-23T08:10:00.744Z,92.17
2023-02-23T08:12:27.821Z,98.83
2023-02-23T08:14:54.847Z,93.27
2023-02-23T08:17:21.802Z,92.50
2023-02-23T08:19:49.957Z,91.87
2023-02-23T08:22:17.034Z,85.23
2023-02-23T08:24:44.257Z,87.70
2023-02-23T08:27:11.261Z,86.40
2023-02-23T08:29:38.875Z,81.63
2023-02-23T08:32:06.278Z,86.60
2023-02-23T08:34:40.950Z,89.13
2023-02-23T08:37:08.446Z,93.73
2023-02-23T08:39:35.406Z,91.50
2023-02-23T08:42:02.814Z,97.03
2023-02-23T08:44:29.758Z,86.70
2023-02-23T08:46:58.363Z,95.87
2023-02-23T08:49:25.922Z,91.23
2023-02-23T08:51:52.905Z,93.10
2023-02-23T08:54:20.479Z,95.23
2023-02-23T08:56:50.408Z,91.33
2023-02-23T08:59:17.462Z,93.87
2023-02-23T09:01:44.546Z,95.50
2023-02-23T09:04:11.588Z,89.27
2023-02-23T09:06:38.639Z,85.60
2023-02-23T09:09:05.738Z,77.90
2023-02-23T09:11:32.769Z,82.20
2023-02-23T09:14:00.139Z,100.00
2023-02-23T09:16:27.155Z,76.57
2023-02-23T09:18:54.560Z,67.93
2023-02-23T09:21:25.451Z,77.07
2023-02-23T09:23:55.981Z,72.80
2023-02-23T09:26:24.648Z,79.90
2023-02-23T09:28:51.749Z,73.33
2023-02-23T09:31:22.657Z,72.33
2023-02-23T09:33:50.662Z,73.17
2023-02-23T09:36:22.479Z,84.53
2023-02-23T09:38:55.467Z,69.17
2023-02-23T09:41:41.283Z,76.17
2023-02-23T09:44:53.466Z,71.03
2023-02-23T09:47:30.730Z,68.33
2023-02-23T09:50:04.311Z,69.27
2023-02-23T09:52:42.494Z,66.80
2023-02-23T09:55:13.266Z,67.73
2023-02-23T09:57:43.804Z,63.50
2023-02-23T10:00:37.150Z,62.70
2023-02-23T10:03:14.716Z,61.70
2023-02-23T10:05:47.915Z,65.63
2023-02-23T10:08:30.167Z,64.83
2023-02-23T10:11:32.105Z,63.67
2023-02-23T10:14:16.464Z,75.33
2023-02-23T10:17:14.569Z,73.27
2023-02-23T10:20:07.966Z,70.40
2023-02-23T10:22:36.278Z,74.53
2023-02-23T10:25:10.307Z,63.40
2023-02-23T10:27:42.135Z,63.90
2023-02-23T10:30:27.800Z,66.20
2023-02-23T10:33:16.563Z,67.10
2023-02-23T10:35:44.836Z,61.43
2023-02-23T10:38:19.446Z,65.93
2023-02-23T10:40:53.920Z,69.53
2023-02-23T10:43:20.909Z,64.27
2023-02-23T10:45:51.099Z,69.17
2023-02-23T10:48:22.500Z,70.57
2023-02-23T10:50:51.637Z,62.60
2023-02-23T10:53:27.591Z,61.80
2023-02-23T10:56:10.994Z,61.00
2023-02-23T10:58:43.783Z,55.67
2023-02-23T11:01:11.815Z,64.17
2023-02-23T11:03:57.600Z,66.37
2023-02-23T11:06:31.562Z,68.30
2023-02-23T11:08:58.519Z,67.10
2023-02-23T11:11:29.062Z,60.00
2023-02-23T11:13:57.355Z,62.63
2023-02-23T11:16:29.081Z,62.50
2023-02-23T11:19:02.603Z,60.50
2023-02-23T11:21:33.520Z,56.77
2023-02-23T11:24:25.720Z,59.73
2023-02-23T11:27:03.888Z,60.13
2023-02-23T11:29:41.575Z,57.53
2023-02-23T11:32:13.800Z,52.83
2023-02-23T11:34:41.793Z,56.97
2023-02-23T11:37:20.921Z,60.93
2023-02-23T11:39:58.139Z,57.53
2023-02-23T11:42:34.289Z,56.83
2023-02-23T11:45:07.686Z,56.97
2023-02-23T11:47:40.265Z,55.90
2023-02-23T11:50:11.045Z,52.00
2023-02-23T11:52:38.058Z,55.63
2023-02-23T11:55:16.904Z,50.97
2023-02-23T11:57:43.904Z,49.10
2023-02-23T12:00:14.251Z,39.40
2023-02-23T12:02:52.348Z,40.37
2023-02-23T12:05:24.198Z,46.83
2023-02-23T12:08:05.941Z,43.57
2023-02-23T12:10:53.832Z,42.53
2023-02-23T12:13:27.282Z,32.90
2023-02-23T12:16:07.099Z,32.50
2023-02-23T12:19:06.991Z,29.20
2023-02-23T12:21:47.452Z,28.93
2023-02-23T12:24:18.571Z,31.80
2023-02-23T12:27:00.524Z,33.67
2023-02-23T12:29:44.623Z,36.37
2023-02-23T12:32:28.645Z,36.30
2023-02-23T12:35:02.184Z,35.63
2023-02-23T12:37:42.486Z,36.13
2023-02-23T12:40:22.361Z,36.23
2023-02-23T12:43:18.074Z,38.70
2023-02-23T12:46:08.509Z,36.83
2023-02-23T12:49:07.990Z,39.00
2023-02-23T12:52:16.581Z,37.73
2023-02-23T12:54:47.241Z,38.83
2023-02-23T12:57:20.403Z,42.67
2023-02-23T12:59:55.628Z,43.40
2023-02-23T13:02:49.731Z,46.00
2023-02-23T13:05:32.668Z,41.30
2023-02-23T13:08:34.894Z,38.90
2023-02-23T13:11:11.285Z,46.60
2023-02-23T13:13:47.311Z,47.80
2023-02-23T13:16:35.707Z,42.77
2023-02-23T13:19:23.969Z,45.60
2023-02-23T13:22:36.678Z,45.97
2023-02-23T13:25:33.997Z,44.27
2023-02-23T13:28:02.837Z,42.33
2023-02-23T13:30:35.541Z,50.47
2023-02-23T13:33:13.262Z,47.20
2023-02-23T13:35:42.312Z,48.13
2023-02-23T13:38:32.375Z,48.30
2023-02-23T13:41:14.250Z,42.83
2023-02-23T13:43:53.417Z,49.53
2023-02-23T13:46:43.370Z,48.63
2023-02-23T13:49:35.191Z,47.50
2023-02-23T13:52:16.936Z,52.53
2023-02-23T13:55:04.538Z,53.30
2023-02-23T13:57:33.049Z,49.10
2023-02-23T14:00:00.854Z,57.07
2023-02-23T14:02:38.818Z,49.10
2023-02-23T14:05:29.124Z,52.53
2023-02-23T14:08:02.495Z,53.10
2023-02-23T14:10:43.799Z,49.10
2023-02-23T14:13:14.023Z,57.33
2023-02-23T14:16:08.080Z,52.70
2023-02-23T14:18:35.462Z,51.80
2023-02-23T14:21:30.048Z,54.50
2023-02-23T14:24:12.148Z,51.53
2023-02-23T14:26:42.865Z,55.73
2023-02-23T14:29:16.890Z,54.57
2023-02-23T14:32:13.892Z,54.10
2023-02-23T14:34:51.413Z,59.87
2023-02-23T14:37:25.705Z,54.10
2023-02-23T14:39:56.620Z,49.50
2023-02-23T14:42:29.905Z,46.13
2023-02-23T14:45:03.296Z,42.97
2023-02-23T14:47:30.348Z,46.73
2023-02-23T14:50:01.938Z,40.73
2023-02-23T14:52:33.170Z,36.63
2023-02-23T14:55:08.623Z,40.50
2023-02-23T14:57:38.030Z,43.43
2023-02-23T15:00:23.080Z,39.53
2023-02-23T15:02:57.366Z,40.53
2023-02-23T15:05:28.083Z,40.20
2023-02-23T15:07:59.195Z,43.13
2023-02-23T15:10:32.393Z,36.33
2023-02-23T15:13:01.251Z,37.83
2023-02-23T15:15:28.641Z,35.70
2023-02-23T15:17:58.876Z,35.93
2023-02-23T15:23:03.847Z,44.37
2023-02-23T15:25:41.137Z,34.00
2023-02-23T15:28:27.097Z,43.10
2023-02-23T15:30:59.718Z,39.40
2023-02-23T15:33:30.366Z,34.07
2023-02-23T15:36:08.204Z,42.60
2023-02-23T15:38:47.788Z,40.03
2023-02-23T15:41:29.222Z,46.10
2023-02-23T15:44:19.167Z,33.07
2023-02-23T15:46:57.134Z,36.20
2023-02-23T15:49:31.099Z,29.53
2023-02-23T15:52:02.342Z,28.77
2023-02-23T15:54:35.212Z,35.57
2023-02-23T15:57:29.378Z,29.20
2023-02-23T15:59:58.871Z,33.77
2023-02-23T16:02:26.058Z,33.30
2023-02-23T16:04:53.923Z,30.13
2023-02-23T16:07:28.610Z,31.87
2023-02-23T16:10:02.230Z,33.20
2023-02-23T16:12:35.068Z,28.87
2023-02-23T16:15:06.352Z,26.90
2023-02-23T16:17:44.200Z,24.23
2023-02-23T16:20:21.462Z,27.33
2023-02-23T16:22:53.595Z,27.33
2023-02-23T16:25:24.849Z,27.17
2023-02-23T16:28:08.263Z,28.07
2023-02-23T16:30:43.051Z,31.53
2023-02-23T16:33:25.516Z,23.57
2023-02-23T16:36:15.944Z,27.70
2023-02-23T16:39:06.374Z,26.83
2023-02-23T16:41:34.726Z,27.40
2023-02-23T16:44:07.202Z,30.73
2023-02-23T16:46:54.133Z,30.27
2023-02-23T16:49:23.333Z,31.00
2023-02-23T16:51:51.708Z,25.10
2023-02-23T16:54:18.661Z,23.70
2023-02-23T16:56:47.463Z,28.40
2023-02-23T16:59:18.499Z,23.23
2023-02-23T17:01:46.647Z,27.87
2023-02-23T17:04:15.848Z,28.40
2023-02-23T17:06:43.983Z,28.23
2023-02-23T17:09:12.693Z,22.70
2023-02-23T17:11:43.977Z,25.67
2023-02-23T17:14:23.946Z,26.83
2023-02-23T17:16:51.835Z,30.37
2023-02-23T17:19:20.328Z,23.97
2023-02-23T17:21:48.654Z,22.73
2023-02-23T17:24:15.400Z,28.60
2023-02-23T17:26:42.312Z,24.23
2023-02-23T17:29:08.976Z,26.93
2023-02-23T17:31:38.044Z,27.80
2023-02-23T17:34:05.080Z,33.83
2023-02-23T17:36:31.777Z,28.83
2023-02-23T17:38:59.119Z,36.93
2023-02-23T17:41:27.079Z,27.63
2023-02-23T17:43:54.035Z,36.20
2023-02-23T17:46:20.893Z,43.00
2023-02-23T17:48:47.563Z,29.70
2023-02-23T17:51:16.827Z,34.33
2023-02-23T17:53:44.120Z,35.67
2023-02-23T17:56:10.971Z,34.30
2023-02-23T17:58:38.425Z,40.77
2023-02-23T18:01:07.208Z,33.30
2023-02-23T18:03:36.255Z,39.73
2023-02-23T18:06:09.409Z,38.53
2023-02-23T18:08:38.311Z,33.80
2023-02-23T18:11:05.272Z,34.00
2023-02-23T18:13:36.352Z,41.40
2023-02-23T18:16:09.125Z,34.80
2023-02-23T18:18:40.676Z,37.47
2023-02-23T18:21:12.417Z,29.93
2023-02-23T18:23:39.498Z,41.50
2023-02-23T18:26:08.581Z,38.37
2023-02-23T18:28:35.769Z,32.37
2023-02-23T18:31:02.834Z,36.73
2023-02-23T18:33:31.382Z,34.07
2023-02-23T18:35:58.507Z,36.00
2023-02-23T18:38:25.608Z,34.80
2023-02-23T18:40:52.509Z,31.40
2023-02-23T18:43:19.154Z,37.07
2023-02-23T18:45:45.762Z,34.00
2023-02-23T18:48:14.015Z,33.97
2023-02-23T18:50:41.190Z,31.20
2023-02-23T18:53:10.769Z,41.47
2023-02-23T18:55:38.315Z,43.77
2023-02-23T18:58:05.811Z,39.10
2023-02-23T19:00:40.385Z,37.20
2023-02-23T19:03:07.358Z,38.03
2023-02-23T19:05:36.109Z,39.43
2023-02-23T19:08:03.605Z,32.17
2023-02-23T19:10:30.532Z,34.60
2023-02-23T19:12:57.343Z,36.20
2023-02-23T19:15:24.098Z,38.47
2023-02-23T19:17:50.865Z,37.23
2023-02-23T19:20:17.806Z,37.60
2023-02-23T19:22:45.717Z,40.20
2023-02-23T19:25:14.151Z,34.33
2023-02-23T19:27:41.473Z,36.53
2023-02-23T19:30:10.006Z,33.60
2023-02-23T19:32:39.420Z,33.77
2023-02-23T19:35:09.113Z,39.30
2023-02-23T19:37:36.579Z,17.47
2023-02-23T19:40:03.981Z,19.87
2023-02-23T19:42:32.999Z,17.30
2023-02-23T19:44:59.776Z,17.23
2023-02-23T19:47:26.503Z,16.73
2023-02-23T19:49:53.634Z,18.03
2023-02-23T19:52:20.395Z,19.23
2023-02-23T19:54:47.051Z,15.43
2023-02-23T19:57:13.776Z,13.30
2023-02-23T19:59:41.048Z,18.40
2023-02-23T20:02:10.745Z,14.30
2023-02-23T20:04:37.435Z,31.33
2023-02-23T20:07:04.086Z,25.63
2023-02-23T20:09:30.760Z,26.17
2023-02-23T20:11:57.714Z,16.33
2023-02-23T20:14:24.922Z,18.63
2023-02-23T20:16:51.716Z,22.43
2023-02-23T20:19:19.644Z,26.60
2023-02-23T20:21:46.355Z,16.00
2023-02-23T20:24:13.366Z,21.27
2023-02-23T20:26:40.182Z,23.23
2023-02-23T20:29:10.763Z,11.20
2023-02-23T20:31:41.602Z,30.27
2023-02-23T20:34:10.925Z,22.30
2023-02-23T20:36:38.289Z,14.70
2023-02-23T20:39:05.408Z,20.10
2023-02-23T20:41:32.752Z,29.40
2023-02-23T20:44:01.175Z,22.97
2023-02-23T20:46:31.601Z,17.83
2023-02-23T20:48:59.304Z,16.40
2023-02-23T20:51:26.680Z,27.37
2023-02-23T20:53:53.341Z,19.17
2023-02-23T20:56:21.849Z,23.03
2023-02-23T20:58:49.346Z,17.87
2023-02-23T21:01:23.502Z,31.77
2023-02-23T21:03:51.717Z,15.60
2023-02-23T21:06:20.369Z,20.80
2023-02-23T21:08:50.800Z,22.87
2023-02-23T21:11:20.366Z,25.77
2023-02-23T21:13:47.305Z,27.83
2023-02-23T21:16:16.898Z,16.13
2023-02-23T21:18:44.072Z,29.40
2023-02-23T21:21:11.399Z,32.50
2023-02-23T21:23:40.114Z,19.53
2023-02-23T21:26:13.121Z,14.20
2023-02-23T21:28:44.279Z,18.53
2023-02-23T21:31:12.807Z,25.33
2023-02-23T21:33:41.372Z,20.83
2023-02-23T21:36:12.383Z,15.80
2023-02-23T21:38:41.323Z,18.73
2023-02-23T21:41:08.969Z,23.10
2023-02-23T21:43:36.937Z,28.37
2023-02-23T21:46:16.661Z,30.37
2023-02-23T21:48:44.218Z,21.97
2023-02-23T21:51:14.121Z,34.07
2023-02-23T21:53:41.652Z,21.03
2023-02-23T21:56:11.769Z,21.30
2023-02-23T21:58:43.131Z,18.63
2023-02-23T22:01:14.916Z,31.37
2023-02-23T22:03:44.870Z,22.33
2023-02-23T22:06:19.659Z,30.53
2023-02-23T22:08:48.111Z,30.97
2023-02-23T22:11:18.020Z,26.00
2023-02-23T22:13:49.472Z,30.43
2023-02-23T22:16:19.260Z,26.13
2023-02-23T22:18:46.755Z,30.07
2023-02-23T22:21:13.988Z,35.47
2023-02-23T22:23:41.674Z,30.83
2023-02-23T22:26:08.986Z,28.23
2023-02-23T22:28:36.519Z,27.63
2023-02-23T22:31:09.861Z,21.33
2023-02-23T22:33:39.367Z,39.53
2023-02-23T22:36:08.119Z,26.37
2023-02-23T22:38:35.367Z,34.63
2023-02-23T22:41:02.087Z,28.70
2023-02-23T22:43:30.590Z,36.67
2023-02-23T22:45:58.031Z,33.20
2023-02-23T22:48:24.968Z,16.50
2023-02-23T22:50:51.621Z,23.63
2023-02-23T22:53:18.345Z,34.57
2023-02-23T22:55:49.344Z,18.47
2023-02-23T22:58:16.693Z,19.10
2023-02-23T23:01:01.977Z,11.13
2023-02-23T23:03:49.399Z,22.23
2023-02-23T23:06:21.786Z,28.03
2023-02-23T23:08:52.130Z,27.90
2023-02-23T23:11:23.631Z,25.53
2023-02-23T23:13:53.220Z,24.10
2023-02-23T23:16:31.685Z,18.60
2023-02-23T23:19:07.768Z,22.33
2023-02-23T23:21:36.208Z,17.70
2023-02-23T23:24:05.607Z,11.70
2023-02-23T23:26:35.230Z,17.20
2023-02-23T23:29:04.741Z,31.47
2023-02-23T23:31:35.052Z,25.13
2023-02-23T23:34:04.997Z,17.63
2023-02-23T23:36:37.216Z,29.90
2023-02-23T23:39:06.095Z,15.77
2023-02-23T23:41:35.862Z,31.67
2023-02-23T23:44:05.133Z,15.07
2023-02-23T23:46:38.630Z,21.90
2023-02-23T23:49:08.203Z,30.33
2023-02-23T23:51:39.220Z,27.53
2023-02-23T23:54:07.895Z,23.17
2023-02-23T23:56:38.969Z,19.70
2023-02-23T23:59:08.897Z,13.43
